Time;durP1;ratioP1;P1;durP2;ratioP2;P2;SDS_P1;SDS_P2;PMS_P1;PMS_P2;Temp;Humidity;BMP_temperature;BMP_pressure;BME280_temperature;BME280_humidity;BME280_pressure;Samples;Min_cycle;Max_cycle;Signal;HPM_P1;HPM_P2
2022/08/23 00:00:47;;;;;;;8.75;4.07;;;;;;;19.01;63.11;101280.06;5053430;28;20025;-46
2022/08/23 00:03:12;;;;;;;5.55;4.03;;;;;;;18.97;63.63;101273.34;5072065;28;20520;-43
2022/08/23 00:05:38;;;;;;;9.27;4.45;;;;;;;18.91;64.04;101272.13;5058904;28;20395;-42
2022/08/23 00:08:04;;;;;;;7.50;3.92;;;;;;;18.88;64.17;101275.13;5071970;28;20031;-46
2022/08/23 00:10:30;;;;;;;11.57;4.43;;;;;;;18.84;64.13;101271.94;5071376;28;20028;-43
2022/08/23 00:12:55;;;;;;;8.65;4.95;;;;;;;18.80;63.80;101270.56;5066903;28;20033;-42
2022/08/23 00:15:21;;;;;;;10.47;5.17;;;;;;;18.75;63.72;101270.19;5069710;28;20489;-43
2022/08/23 00:17:47;;;;;;;11.07;4.72;;;;;;;18.74;63.51;101273.88;5048250;28;20277;-43
2022/08/23 00:20:15;;;;;;;9.65;4.65;;;;;;;18.70;64.12;101272.50;5071097;28;20055;-43
2022/08/23 00:22:41;;;;;;;11.53;4.63;;;;;;;18.66;64.28;101269.28;5071501;28;20103;-42
2022/08/23 00:25:09;;;;;;;10.65;4.85;;;;;;;18.63;64.65;101268.75;5072379;28;20107;-42
2022/08/23 00:27:35;;;;;;;11.80;5.35;;;;;;;18.56;64.65;101273.09;5053889;28;20064;-43
2022/08/23 00:30:02;;;;;;;9.55;4.68;;;;;;;18.56;64.24;101278.50;5075146;28;20036;-43
2022/08/23 00:32:31;;;;;;;9.40;5.05;;;;;;;18.51;64.68;101268.19;5060887;28;20112;-42
2022/08/23 00:34:58;;;;;;;10.32;4.50;;;;;;;18.49;65.29;101276.44;5067457;28;20032;-43
2022/08/23 00:37:25;;;;;;;8.35;4.53;;;;;;;18.47;65.35;101272.22;5075674;28;20083;-44
2022/08/23 00:39:50;;;;;;;10.30;3.97;;;;;;;18.46;65.62;101273.22;5054822;28;20090;-44
2022/08/23 00:47:58;;;;;;;11.23;4.72;;;;;;;18.27;66.52;101279.66;5071631;28;20048;-43
2022/08/23 00:53:23;;;;;;;9.73;3.92;;;;;;;18.17;66.31;101268.13;5087830;22;20062;-77
2022/08/23 00:55:53;;;;;;;9.90;3.85;;;;;;;18.14;67.09;101277.38;5036093;28;20053;-78
2022/08/23 00:58:20;;;;;;;10.77;4.30;;;;;;;18.06;67.33;101275.47;5036122;28;20498;-77
2022/08/23 01:00:48;;;;;;;8.85;4.20;;;;;;;18.01;67.44;101268.88;5036067;28;20101;-78
2022/08/23 01:03:15;;;;;;;5.80;4.28;;;;;;;18.01;68.09;101279.63;5041738;28;20025;-77
2022/08/23 01:05:51;;;;;;;10.23;4.22;;;;;;;17.99;67.42;101284.31;5043749;28;20095;-78
2022/08/23 01:08:18;;;;;;;10.48;4.75;;;;;;;17.91;68.24;101267.09;5034493;28;20036;-77
2022/08/23 01:10:51;;;;;;;8.40;4.05;;;;;;;17.94;67.86;101282.94;5036721;28;20032;-77
2022/08/23 01:13:26;;;;;;;7.97;4.03;;;;;;;17.88;68.73;101275.47;5036204;28;20022;-78
2022/08/23 01:15:56;;;;;;;10.73;4.25;;;;;;;17.89;68.63;101284.41;5031307;28;20116;-78
2022/08/23 01:18:25;;;;;;;8.70;3.88;;;;;;;17.86;69.02;101285.50;5036379;28;20056;-79
2022/08/23 01:21:26;;;;;;;10.77;4.35;;;;;;;17.85;68.54;101278.47;5035120;28;20061;-78
2022/08/23 01:23:59;;;;;;;11.98;4.65;;;;;;;17.79;69.31;101283.63;5027083;28;20041;-78
2022/08/23 01:26:26;;;;;;;6.90;3.92;;;;;;;17.79;69.48;101284.44;5036120;28;20076;-78
2022/08/23 01:28:53;;;;;;;8.07;4.40;;;;;;;17.75;69.20;101278.53;5035176;28;20025;-78
2022/08/23 01:31:21;;;;;;;7.75;3.95;;;;;;;17.75;68.99;101288.44;5036117;28;20472;-78
2022/08/23 01:33:57;;;;;;;8.25;4.28;;;;;;;17.73;69.20;101299.31;5041987;28;20045;-78
2022/08/23 01:36:25;;;;;;;8.48;4.47;;;;;;;17.70;69.54;101296.09;5039801;28;20034;-78
2022/08/23 01:38:51;;;;;;;12.25;4.35;;;;;;;17.65;69.82;101293.91;5034572;28;20030;-78
2022/08/23 01:41:16;;;;;;;9.23;4.47;;;;;;;17.59;69.80;101299.03;5032921;28;20041;-78
2022/08/23 01:43:42;;;;;;;9.65;4.30;;;;;;;17.56;69.97;101295.63;5035433;28;20018;-78
2022/08/23 01:46:15;;;;;;;9.25;4.50;;;;;;;17.55;69.87;101296.66;5034423;28;20113;-78
2022/08/23 01:48:40;;;;;;;9.20;4.30;;;;;;;17.48;70.51;101295.53;5034076;28;20037;-78
2022/08/23 01:51:06;;;;;;;12.48;4.57;;;;;;;17.47;70.48;101307.31;5035483;28;20420;-78
2022/08/23 01:53:32;;;;;;;9.18;4.88;;;;;;;17.44;69.77;101302.22;5015019;28;20447;-78
2022/08/23 01:55:57;;;;;;;10.27;5.30;;;;;;;17.41;71.01;101293.63;5035372;28;20030;-77
2022/08/23 01:58:23;;;;;;;11.20;5.25;;;;;;;17.38;70.54;101298.28;5031568;28;20033;-77
2022/08/23 02:00:49;;;;;;;9.40;5.15;;;;;;;17.33;70.95;101295.22;5017202;28;20026;-77
2022/08/23 02:03:14;;;;;;;8.75;4.82;;;;;;;17.35;69.92;101287.88;5012436;28;20045;-78
2022/08/23 02:05:41;;;;;;;9.30;5.10;;;;;;;17.33;71.11;101291.69;5025774;28;20361;-78
2022/08/23 02:10:51;;;;;;;11.02;5.15;;;;;;;17.30;70.96;101284.81;5017191;28;20556;-78
2022/08/23 02:13:17;;;;;;;10.40;5.45;;;;;;;17.35;70.96;101292.38;5028079;28;20026;-78
2022/08/23 02:15:44;;;;;;;9.38;5.78;;;;;;;17.31;71.63;101299.91;5021882;28;20026;-78
2022/08/23 02:18:10;;;;;;;12.57;5.50;;;;;;;17.35;71.27;101300.44;5028011;28;20064;-78
2022/08/23 02:20:36;;;;;;;12.57;5.47;;;;;;;17.36;71.31;101296.78;5021356;28;20041;-78
2022/08/23 02:23:02;;;;;;;8.95;5.28;;;;;;;17.32;71.68;101293.56;5034596;28;20025;-77
2022/08/23 02:25:27;;;;;;;11.68;5.30;;;;;;;17.33;71.92;101295.22;5025364;28;20085;-78
2022/08/23 02:27:56;;;;;;;10.73;5.10;;;;;;;17.32;71.73;101292.69;5023151;28;20036;-78
2022/08/23 02:30:21;;;;;;;13.80;5.47;;;;;;;17.32;71.45;101290.88;5018309;28;20037;-78
2022/08/23 02:32:46;;;;;;;9.75;5.63;;;;;;;17.32;71.46;101288.19;5021617;28;20088;-78
2022/08/23 02:35:11;;;;;;;6.95;4.93;;;;;;;17.32;71.82;101287.31;5032677;28;20025;-78
2022/08/23 02:37:37;;;;;;;10.55;4.82;;;;;;;17.32;72.20;101284.63;5020555;28;20088;-78
2022/08/23 02:40:04;;;;;;;12.90;5.32;;;;;;;17.27;72.45;101281.56;5034068;28;20388;-78
2022/08/23 02:42:29;;;;;;;10.93;5.60;;;;;;;17.28;72.31;101285.94;5034010;28;20099;-78
2022/08/23 02:44:55;;;;;;;10.50;5.80;;;;;;;17.32;72.04;101280.13;5014607;28;20022;-78
2022/08/23 02:47:20;;;;;;;8.40;5.90;;;;;;;17.31;72.19;101291.00;5014206;28;20022;-78
2022/08/23 02:49:45;;;;;;;14.45;5.75;;;;;;;17.29;72.06;101285.78;5032908;28;20030;-78
2022/08/23 02:52:11;;;;;;;11.37;5.63;;;;;;;17.30;72.34;101292.00;5034348;28;20053;-78
2022/08/23 02:54:36;;;;;;;7.82;5.60;;;;;;;17.25;72.82;101297.81;5017289;28;20376;-77
2022/08/23 02:57:02;;;;;;;7.65;4.93;;;;;;;17.28;72.68;101302.88;5014323;28;20095;-79
2022/08/23 02:59:27;;;;;;;9.93;5.75;;;;;;;17.29;72.57;101306.44;5004421;28;20030;-79
2022/08/23 03:02:02;;;;;;;13.18;5.68;;;;;;;17.27;72.67;101305.72;5014311;28;20022;-80
2022/08/23 03:04:27;;;;;;;9.90;5.63;;;;;;;17.25;72.73;101305.88;5020766;28;20457;-79
2022/08/23 03:06:52;;;;;;;11.93;5.78;;;;;;;17.28;72.88;101302.03;5018433;28;20164;-79
2022/08/23 03:09:18;;;;;;;10.07;5.80;;;;;;;17.23;73.00;101312.41;5033421;28;20025;-80
2022/08/23 03:11:48;;;;;;;12.57;5.80;;;;;;;17.26;72.85;101306.72;5021679;28;20040;-80
2022/08/23 03:14:15;;;;;;;7.95;5.22;;;;;;;17.26;73.21;101309.41;5004995;28;20112;-81
2022/08/23 03:16:40;;;;;;;10.00;5.80;;;;;;;17.16;73.83;101307.63;5014231;28;20037;-80
2022/08/23 03:19:06;;;;;;;7.72;5.85;;;;;;;17.19;73.61;101307.31;5026671;28;20032;-80
2022/08/23 03:21:31;;;;;;;8.73;5.50;;;;;;;17.15;74.01;101305.94;5005286;28;20061;-78
2022/08/23 03:23:56;;;;;;;10.98;6.05;;;;;;;17.15;74.08;101311.31;5014516;28;20339;-78
2022/08/23 03:26:22;;;;;;;10.47;6.03;;;;;;;17.16;73.93;101315.66;5026732;28;20026;-78
2022/08/23 03:28:47;;;;;;;10.75;6.13;;;;;;;17.14;74.41;101309.59;5014053;28;20335;-79
2022/08/23 03:31:14;;;;;;;12.68;6.03;;;;;;;17.16;74.07;101317.50;5012902;28;20034;-80
2022/08/23 03:33:39;;;;;;;14.85;6.53;;;;;;;17.17;74.00;101319.22;5013760;28;20026;-79
2022/08/23 03:36:07;;;;;;;11.52;6.30;;;;;;;17.15;74.35;101310.44;5026203;28;20361;-80
2022/08/23 03:38:34;;;;;;;8.88;6.20;;;;;;;17.17;74.47;101313.84;5014066;28;20072;-80
2022/08/23 03:41:00;;;;;;;9.65;5.80;;;;;;;17.19;74.65;101314.53;5020500;28;20040;-80
2022/08/23 03:43:25;;;;;;;11.20;6.20;;;;;;;17.18;74.78;101316.34;5019410;28;20033;-78
2022/08/23 03:45:50;;;;;;;8.25;6.35;;;;;;;17.14;74.73;101314.97;5007231;28;20017;-78
2022/08/23 03:48:16;;;;;;;12.38;7.05;;;;;;;17.17;74.72;101316.53;5003319;28;20037;-78
2022/08/23 03:50:41;;;;;;;9.70;6.72;;;;;;;17.16;74.14;101317.50;5028752;28;20026;-78
2022/08/23 03:53:07;;;;;;;11.50;6.57;;;;;;;17.16;74.57;101320.19;5032240;28;20054;-79
2022/08/23 03:55:32;;;;;;;10.60;6.93;;;;;;;17.13;74.18;101321.31;5032492;28;20475;-79
2022/08/23 03:57:58;;;;;;;12.93;6.90;;;;;;;17.17;74.55;101322.75;5019896;28;20127;-78
2022/08/23 04:00:24;;;;;;;15.68;7.35;;;;;;;17.14;74.52;101328.41;5032725;28;20357;-79
2022/08/23 04:02:49;;;;;;;11.00;8.25;;;;;;;17.15;74.37;101321.19;5011669;28;20034;-78
2022/08/23 04:05:15;;;;;;;16.05;7.75;;;;;;;17.14;75.63;101325.72;5013508;28;20030;-79
2022/08/23 04:07:40;;;;;;;11.10;7.38;;;;;;;17.14;74.95;101317.66;5013430;28;20022;-78
2022/08/23 04:10:08;;;;;;;13.27;7.85;;;;;;;17.14;75.48;101327.56;5007416;28;20095;-79
2022/08/23 04:12:34;;;;;;;10.00;7.78;;;;;;;17.13;74.88;101325.88;5013367;28;20480;-78
2022/08/23 04:14:59;;;;;;;16.58;7.57;;;;;;;17.14;75.03;101327.56;5021184;28;20033;-79
2022/08/23 04:17:25;;;;;;;15.80;7.72;;;;;;;17.13;74.70;101332.06;5026746;28;20109;-79
2022/08/23 04:19:50;;;;;;;12.48;7.93;;;;;;;17.12;75.32;101329.53;5019794;28;20481;-79
2022/08/23 04:22:17;;;;;;;11.05;7.32;;;;;;;17.11;75.28;101322.50;5026931;28;20030;-79
2022/08/23 04:24:43;;;;;;;12.88;7.30;;;;;;;17.14;76.19;101331.09;5007501;28;20560;-79
2022/08/23 04:27:09;;;;;;;12.63;7.95;;;;;;;17.14;75.92;101332.94;5013469;28;20083;-79
2022/08/23 04:29:34;;;;;;;12.05;6.95;;;;;;;17.16;75.98;101341.66;5012181;28;20101;-79
2022/08/23 04:32:01;;;;;;;12.50;7.38;;;;;;;17.17;76.02;101351.44;5012839;28;20026;-79
2022/08/23 04:34:26;;;;;;;13.52;7.22;;;;;;;17.16;76.56;101345.19;5013449;28;20128;-79
2022/08/23 04:36:52;;;;;;;12.23;7.53;;;;;;;17.18;76.13;101345.88;5013059;28;20029;-79
2022/08/23 04:39:17;;;;;;;17.00;8.32;;;;;;;17.15;76.42;101345.34;5026038;28;20372;-78
2022/08/23 04:44:26;;;;;;;11.45;6.80;;;;;;;17.19;75.89;101352.94;5021331;28;20072;-79
2022/08/23 04:46:51;;;;;;;14.13;7.60;;;;;;;17.19;76.46;101350.28;5021633;28;20488;-79
2022/08/23 04:49:17;;;;;;;11.50;7.07;;;;;;;17.22;76.02;101343.78;5019485;28;20512;-79
2022/08/23 04:51:42;;;;;;;10.50;7.65;;;;;;;17.21;76.77;101358.19;5022963;28;20385;-79
2022/08/23 04:54:08;;;;;;;13.60;7.45;;;;;;;17.22;76.33;101354.50;5027322;28;20479;-79
2022/08/23 04:56:34;;;;;;;14.13;7.28;;;;;;;17.21;76.71;101358.19;4994857;28;20026;-79
2022/08/23 04:58:59;;;;;;;16.35;7.07;;;;;;;17.23;76.25;101364.22;4995172;28;20037;-79
2022/08/23 05:01:25;;;;;;;12.65;7.32;;;;;;;17.24;76.35;101362.41;5022259;28;20025;-79
2022/08/23 05:03:51;;;;;;;12.88;7.53;;;;;;;17.25;76.70;101361.41;5016960;28;20109;-80
2022/08/23 05:06:16;;;;;;;14.23;7.20;;;;;;;17.25;77.00;101356.88;5021915;28;20029;-80
2022/08/23 05:08:42;;;;;;;14.32;7.35;;;;;;;17.28;77.05;101363.78;5032772;28;20037;-77
2022/08/23 05:11:08;;;;;;;12.37;7.10;;;;;;;17.31;77.12;101368.88;5022151;28;20041;-79
2022/08/23 05:13:34;;;;;;;11.25;7.15;;;;;;;17.32;77.20;101367.84;5030776;28;20358;-79
2022/08/23 05:15:59;;;;;;;10.15;7.45;;;;;;;17.35;77.23;101362.19;5017530;28;20100;-79
2022/08/23 05:18:25;;;;;;;13.43;7.60;;;;;;;17.37;77.38;101368.28;5013463;28;20035;-79
2022/08/23 05:20:51;;;;;;;10.90;7.25;;;;;;;17.42;76.73;101363.31;5036478;28;20456;-79
2022/08/23 05:23:17;;;;;;;12.88;7.55;;;;;;;17.44;76.07;101361.31;5023283;28;20110;-79
2022/08/23 05:25:51;;;;;;;11.30;7.07;;;;;;;17.46;75.63;101369.22;5036475;28;20025;-79
2022/08/23 05:28:25;;;;;;;11.90;7.70;;;;;;;17.45;75.28;101356.78;5026063;28;20045;-80
2022/08/23 05:30:58;;;;;;;14.95;7.80;;;;;;;17.50;75.08;101363.41;5036163;28;20373;-80
2022/08/23 05:33:24;;;;;;;10.75;7.55;;;;;;;17.54;75.93;101378.22;5020097;28;20108;-79
2022/08/23 05:35:50;;;;;;;12.77;8.15;;;;;;;17.59;75.83;101376.94;5016644;28;20213;-79
2022/08/23 05:38:18;;;;;;;11.73;7.78;;;;;;;17.64;75.75;101383.53;5012183;28;20150;-79
2022/08/23 05:40:47;;;;;;;13.07;8.20;;;;;;;17.67;75.83;101387.75;5012165;28;20089;-79
2022/08/23 05:43:12;;;;;;;15.43;7.53;;;;;;;17.70;75.42;101392.81;5029798;28;20029;-80
2022/08/23 05:45:37;;;;;;;14.00;7.18;;;;;;;17.74;74.51;101403.13;5020894;28;20032;-79
2022/08/23 05:48:02;;;;;;;13.45;7.32;;;;;;;17.78;75.40;101406.34;5032718;28;20037;-80
2022/08/23 05:50:28;;;;;;;15.90;7.70;;;;;;;17.81;74.96;101406.03;5018085;28;20469;-79
2022/08/23 05:52:53;;;;;;;14.18;7.25;;;;;;;17.83;74.65;101411.28;5023801;28;20046;-78
2022/08/23 05:55:18;;;;;;;17.47;8.70;;;;;;;17.88;74.83;101406.31;5024802;28;20513;-79
2022/08/23 05:57:44;;;;;;;13.50;7.57;;;;;;;17.90;74.39;101407.88;5033127;28;20321;-79
2022/08/23 06:00:14;;;;;;;15.25;7.45;;;;;;;17.97;74.48;101401.88;5022332;28;20297;-79
2022/08/23 06:02:40;;;;;;;11.20;7.47;;;;;;;18.01;74.48;101405.94;5019196;28;20022;-79
2022/08/23 06:05:06;;;;;;;13.93;8.05;;;;;;;18.03;74.19;101410.16;5024013;28;20041;-82
2022/08/23 06:07:36;;;;;;;17.20;8.32;;;;;;;18.08;73.64;101404.34;5021178;28;20468;-81
2022/08/23 06:10:03;;;;;;;14.73;8.68;;;;;;;18.10;73.57;101408.56;5027143;28;20034;-79
2022/08/23 06:12:30;;;;;;;12.80;7.78;;;;;;;18.13;73.74;101415.47;5034066;28;20029;-80
2022/08/23 06:14:56;;;;;;;14.63;8.52;;;;;;;18.20;74.00;101404.94;5020803;28;20620;-79
2022/08/23 06:17:22;;;;;;;11.18;8.38;;;;;;;18.21;72.54;101407.47;5008456;28;20052;-79
2022/08/23 06:19:48;;;;;;;13.13;8.27;;;;;;;18.22;72.86;101406.50;5012094;28;20037;-79
2022/08/23 06:22:13;;;;;;;15.40;8.55;;;;;;;18.27;73.24;101420.31;5012687;28;20030;-79
2022/08/23 06:24:38;;;;;;;12.75;8.23;;;;;;;18.32;73.60;101419.88;5017622;28;20061;-79
2022/08/23 06:27:04;;;;;;;12.13;8.43;;;;;;;18.39;73.17;101420.94;5014512;28;20022;-80
2022/08/23 06:29:29;;;;;;;11.50;8.88;;;;;;;18.46;72.87;101421.16;5028325;28;20296;-78
2022/08/23 06:31:55;;;;;;;15.55;8.50;;;;;;;18.53;73.01;101411.44;5016130;28;20021;-80
2022/08/23 06:34:32;;;;;;;15.15;8.93;;;;;;;18.59;72.41;101418.91;5008900;28;20480;-80
2022/08/23 06:37:00;;;;;;;17.70;10.30;;;;;;;18.63;72.28;101411.38;5012202;28;20033;-79
2022/08/23 06:39:28;;;;;;;19.65;9.70;;;;;;;18.68;71.83;101417.97;5029636;28;20111;-80
2022/08/23 06:42:03;;;;;;;13.87;9.37;;;;;;;18.75;71.35;101415.50;5020953;28;20079;-80
2022/08/23 06:44:30;;;;;;;19.30;9.60;;;;;;;18.80;71.21;101415.88;5016907;28;20125;-80
2022/08/23 06:46:56;;;;;;;15.00;10.32;;;;;;;18.87;71.02;101421.50;5010544;28;20454;-79
2022/08/23 06:49:22;;;;;;;17.42;10.38;;;;;;;18.93;70.58;101418.16;5014473;28;20038;-80
2022/08/23 06:51:50;;;;;;;18.13;10.65;;;;;;;19.01;70.04;101412.81;5006972;28;20133;-79
2022/08/23 06:54:20;;;;;;;16.70;10.65;;;;;;;19.10;70.18;101416.44;5008068;28;20026;-80
2022/08/23 06:56:48;;;;;;;14.90;10.48;;;;;;;19.20;69.30;101410.91;5006938;28;20029;-78
2022/08/23 06:59:13;;;;;;;16.40;10.98;;;;;;;19.31;69.82;101416.03;5005536;28;20022;-78
2022/08/23 07:01:43;;;;;;;16.33;11.77;;;;;;;19.47;69.36;101414.41;5013494;28;20112;-80
2022/08/23 07:04:13;;;;;;;16.23;11.95;;;;;;;19.62;69.31;101407.41;5013871;28;20164;-80
2022/08/23 07:06:39;;;;;;;19.70;11.48;;;;;;;19.82;68.32;101415.22;5020284;28;20049;-81
2022/08/23 07:09:05;;;;;;;16.63;10.60;;;;;;;19.99;67.34;101416.97;5027598;28;20033;-81
2022/08/23 07:11:31;;;;;;;21.08;11.07;;;;;;;20.21;67.51;101415.47;5017533;28;20124;-80
2022/08/23 07:13:59;;;;;;;23.33;10.48;;;;;;;20.57;67.41;101415.16;5012401;28;20065;-80
2022/08/23 07:16:31;;;;;;;18.13;10.88;;;;;;;20.79;65.97;101415.50;5030395;28;20022;-81
2022/08/23 07:18:56;;;;;;;15.88;11.15;;;;;;;21.04;64.11;101425.22;5028222;28;20095;-80
2022/08/23 07:21:21;;;;;;;18.13;11.77;;;;;;;21.13;62.30;101428.75;5020451;28;20346;-81
2022/08/23 07:23:46;;;;;;;17.10;11.25;;;;;;;21.38;63.18;101423.25;5017506;28;20284;-81
2022/08/23 07:26:14;;;;;;;19.47;11.13;;;;;;;21.57;62.11;101424.75;5013824;28;20026;-81
2022/08/23 07:28:40;;;;;;;16.25;10.30;;;;;;;21.95;62.74;101427.59;5009877;28;20328;-80
2022/08/23 07:31:10;;;;;;;18.75;10.70;;;;;;;22.11;60.25;101423.94;5016630;28;20536;-79
2022/08/23 07:33:37;;;;;;;16.80;9.52;;;;;;;22.29;59.28;101437.22;5020884;28;20068;-81
2022/08/23 07:36:02;;;;;;;13.73;9.55;;;;;;;22.55;59.40;101431.44;5014310;28;20484;-81
2022/08/23 07:38:28;;;;;;;15.00;9.95;;;;;;;22.86;58.70;101433.16;5019335;28;20030;-82
2022/08/23 07:40:54;;;;;;;16.02;9.65;;;;;;;23.15;56.75;101428.81;5017633;28;20033;-80
2022/08/23 07:43:19;;;;;;;14.30;9.13;;;;;;;23.44;57.03;101433.41;5023179;28;20029;-83
2022/08/23 07:45:48;;;;;;;17.98;10.10;;;;;;;23.75;55.51;101438.59;5031116;28;20032;-83
2022/08/23 07:48:13;;;;;;;17.10;10.20;;;;;;;23.88;54.67;101439.81;5018424;28;20048;-83
2022/08/23 07:50:39;;;;;;;17.40;10.20;;;;;;;24.24;54.11;101441.66;5026587;28;20025;-83
2022/08/23 07:53:05;;;;;;;17.02;10.13;;;;;;;24.50;53.83;101441.91;5020565;28;20071;-80
2022/08/23 07:55:31;;;;;;;17.02;9.85;;;;;;;24.69;53.82;101447.72;5015823;28;20461;-82
2022/08/23 07:57:56;;;;;;;19.88;10.50;;;;;;;24.85;52.06;101444.72;5022187;28;20061;-81
2022/08/23 08:00:21;;;;;;;18.10;10.18;;;;;;;25.13;51.62;101441.16;5014717;28;20120;-82
2022/08/23 08:02:49;;;;;;;19.90;10.00;;;;;;;25.22;51.90;101450.81;5015905;28;20381;-81
2022/08/23 08:05:14;;;;;;;22.08;9.52;;;;;;;25.46;50.94;101445.97;5015345;28;20265;-82
2022/08/23 08:07:40;;;;;;;16.92;9.73;;;;;;;25.63;48.78;101449.16;5015923;28;20366;-82
2022/08/23 08:10:08;;;;;;;15.27;9.45;;;;;;;25.73;50.63;101451.50;5018112;28;20040;-83
2022/08/23 08:12:35;;;;;;;13.27;9.23;;;;;;;26.13;48.94;101454.38;5014126;28;20484;-83
2022/08/23 08:15:00;;;;;;;21.83;10.05;;;;;;;26.22;48.49;101451.28;5009012;28;20034;-83
2022/08/23 08:17:26;;;;;;;18.58;9.27;;;;;;;26.52;47.45;101452.78;5018311;28;20101;-83
2022/08/23 08:19:51;;;;;;;20.35;9.15;;;;;;;26.62;46.79;101457.81;5014236;28;20026;-83
2022/08/23 08:22:16;;;;;;;23.20;9.35;;;;;;;26.73;48.88;101462.66;5015310;28;20365;-80
2022/08/23 08:24:44;;;;;;;20.38;9.00;;;;;;;26.81;48.41;101461.59;5012326;28;20026;-80
2022/08/23 08:27:09;;;;;;;14.90;8.10;;;;;;;26.97;46.61;101461.19;5005956;28;20149;-80
2022/08/23 08:29:35;;;;;;;15.18;7.85;;;;;;;27.19;45.96;101452.75;5020192;28;20497;-79
2022/08/23 08:32:01;;;;;;;21.40;8.55;;;;;;;27.54;46.14;101453.28;5023761;28;20022;-82
2022/08/23 08:34:28;;;;;;;20.13;8.18;;;;;;;27.61;45.61;101453.28;5017604;28;20030;-83
2022/08/23 08:36:57;;;;;;;16.67;8.05;;;;;;;27.77;45.30;101452.78;5032247;28;20500;-84
2022/08/23 08:39:24;;;;;;;;;;;;;;;27.99;49.05;101453.31;5027811;28;20025;-84
2022/08/23 08:42:03;;;;;;;26.52;8.15;;;;;;;28.22;45.07;101452.75;5024621;28;19910;-83
2022/08/23 08:44:37;;;;;;;20.27;8.02;;;;;;;28.32;43.76;101457.75;5016812;28;20018;-84
2022/08/23 08:47:16;;;;;;;24.88;8.27;;;;;;;28.40;44.40;101462.94;5034294;28;20080;-83
2022/08/23 08:49:47;;;;;;;18.85;6.88;;;;;;;28.65;44.17;101464.06;5019736;28;20164;-83
2022/08/23 08:52:37;;;;;;;18.92;7.40;;;;;;;28.78;45.53;101464.78;5020114;28;20393;-83
2022/08/23 08:55:07;;;;;;;19.27;7.13;;;;;;;28.97;42.51;101464.81;5018199;28;20041;-83
2022/08/23 08:57:39;;;;;;;16.05;7.05;;;;;;;29.25;42.75;101467.06;5017456;28;20524;-82
2022/08/23 09:00:13;;;;;;;15.77;5.93;;;;;;;29.39;41.90;101470.50;5025488;28;20056;-81
2022/08/23 09:02:40;;;;;;;14.82;6.30;;;;;;;29.63;40.58;101473.38;5013362;28;20025;-82
2022/08/23 09:05:20;;;;;;;14.18;5.97;;;;;;;29.65;41.59;101465.78;5017245;28;20465;-83
2022/08/23 09:08:13;;;;;;;11.13;4.90;;;;;;;29.76;41.13;101475.09;5018122;28;20068;-83
2022/08/23 09:11:01;;;;;;;10.32;3.83;;;;;;;29.89;41.67;101472.22;5016927;28;20030;-81
2022/08/23 09:13:33;;;;;;;10.80;3.60;;;;;;;29.85;40.56;101471.03;5013230;28;20121;-82
2022/08/23 09:16:36;;;;;;;8.60;3.80;;;;;;;29.99;42.01;101475.22;5012038;28;20099;-82
2022/08/23 09:19:03;;;;;;;12.18;3.90;;;;;;;29.98;39.75;101476.31;5006183;28;20044;-82
2022/08/23 09:21:40;;;;;;;8.73;3.47;;;;;;;30.13;39.52;101484.13;5018544;28;20052;-82
2022/08/23 09:24:05;;;;;;;9.15;3.45;;;;;;;30.25;37.94;101476.75;5007123;28;20022;-82
2022/08/23 09:26:30;;;;;;;5.45;3.47;;;;;;;30.07;39.04;101476.81;5017144;28;20029;-81
2022/08/23 09:29:03;;;;;;;9.15;4.18;;;;;;;30.11;38.76;101479.94;5010487;28;20032;-81
2022/08/23 09:31:44;;;;;;;11.50;4.15;;;;;;;30.30;40.00;101481.53;5005011;28;20080;-83
2022/08/23 09:34:17;;;;;;;10.60;4.57;;;;;;;30.50;38.32;101485.94;5012543;28;20406;-81
2022/08/23 09:36:43;;;;;;;12.38;5.03;;;;;;;30.58;37.82;101482.84;5025634;28;20033;-83
2022/08/23 09:39:30;;;;;;;14.48;4.70;;;;;;;30.59;39.85;101485.34;5019539;28;20079;-81
2022/08/23 09:41:56;;;;;;;7.70;3.67;;;;;;;30.70;38.65;101485.59;5016153;28;20045;-82
2022/08/23 09:44:38;;;;;;;14.40;4.20;;;;;;;30.87;38.96;101474.75;5022601;28;20022;-82
2022/08/23 09:47:15;;;;;;;10.90;4.90;;;;;;;31.02;38.59;101474.31;5025555;28;20033;-81
2022/08/23 09:49:43;;;;;;;9.63;3.80;;;;;;;31.00;36.99;101477.28;5026140;28;20025;-82
2022/08/23 09:52:18;;;;;;;12.20;3.97;;;;;;;31.34;37.97;101477.50;5030190;28;20092;-82
2022/08/23 09:54:55;;;;;;;10.75;4.28;;;;;;;31.73;37.12;101469.56;5014976;28;20034;-80
2022/08/23 09:57:29;;;;;;;7.78;2.97;;;;;;;31.78;37.36;101471.56;5009287;28;20377;-81
2022/08/23 10:00:00;;;;;;;7.60;3.22;;;;;;;31.79;35.76;101465.81;5003969;28;20369;-81
2022/08/23 10:02:29;;;;;;;5.10;2.35;;;;;;;32.04;34.12;101459.13;5017608;28;20069;-81
2022/08/23 10:05:03;;;;;;;8.10;2.03;;;;;;;32.26;34.80;101451.06;5014768;28;20053;-80
2022/08/23 10:07:40;;;;;;;7.88;2.88;;;;;;;32.39;33.51;101452.63;5007532;28;20038;-81
2022/08/23 10:10:29;;;;;;;5.32;2.50;;;;;;;32.59;34.37;101449.38;5007551;28;20034;-82
2022/08/23 10:12:57;;;;;;;8.07;2.17;;;;;;;32.71;32.17;101455.69;5016266;28;20025;-83
2022/08/23 10:15:39;;;;;;;7.10;2.63;;;;;;;32.88;32.99;101452.06;5014523;28;20046;-82
2022/08/23 10:18:15;;;;;;;11.55;2.42;;;;;;;33.00;32.22;101459.13;5015048;28;20045;-83
2022/08/23 10:20:48;;;;;;;4.68;1.95;;;;;;;33.27;33.65;101454.84;5014453;28;20488;-82
2022/08/23 10:23:14;;;;;;;5.15;2.03;;;;;;;33.24;30.72;101450.66;5017887;28;20026;-82
2022/08/23 10:25:50;;;;;;;7.80;2.30;;;;;;;33.30;31.57;101449.66;5019680;28;20036;-82
2022/08/23 10:31:34;;;;;;;7.45;2.15;;;;;;;33.42;31.29;101449.53;5013771;28;20092;-83
2022/08/23 10:34:14;;;;;;;5.60;1.80;;;;;;;33.69;32.05;101452.38;5020874;28;20041;-82
2022/08/23 10:37:13;;;;;;;7.90;2.22;;;;;;;33.73;32.58;101450.75;5025568;28;20033;-81
2022/08/23 10:40:13;;;;;;;9.35;1.90;;;;;;;33.94;31.49;101445.44;5024494;28;20034;-83
2022/08/23 10:42:47;;;;;;;7.28;2.25;;;;;;;33.88;31.67;101449.25;5021264;28;20033;-83
2022/08/23 10:45:34;;;;;;;5.72;2.00;;;;;;;34.13;31.00;101437.66;5018466;28;20037;-83
2022/08/23 10:48:37;;;;;;;5.90;1.92;;;;;;;34.49;31.99;101449.00;5019848;28;20507;-83
2022/08/23 10:51:12;;;;;;;8.10;1.92;;;;;;;34.47;28.79;101440.16;5005392;28;20073;-82
2022/08/23 10:54:02;;;;;;;5.78;1.60;;;;;;;34.71;30.70;101439.78;5006706;28;20479;-83
2022/08/23 10:56:28;;;;;;;6.28;2.10;;;;;;;34.55;28.50;101436.09;5021748;28;20025;-83
2022/08/23 10:58:57;;;;;;;4.45;1.90;;;;;;;34.93;28.75;101432.22;5028624;28;20040;-83
2022/08/23 11:01:44;;;;;;;4.40;2.00;;;;;;;35.00;28.43;101434.75;5023980;28;20072;-84
2022/08/23 11:04:28;;;;;;;5.40;2.47;;;;;;;35.19;29.93;101435.97;5012634;28;20121;-83
2022/08/23 11:06:57;;;;;;;7.45;2.17;;;;;;;35.16;27.85;101439.25;5021241;28;20353;-83
2022/08/23 11:09:23;;;;;;;6.03;2.15;;;;;;;35.15;27.62;101432.06;5026359;28;20025;-83
2022/08/23 11:12:21;;;;;;;6.73;2.10;;;;;;;35.44;29.79;101426.16;5026900;28;20057;-83
2022/08/23 11:15:02;;;;;;;8.93;2.17;;;;;;;35.38;28.52;101427.22;5014987;28;20040;-83
2022/08/23 11:18:00;;;;;;;5.65;1.55;;;;;;;35.44;27.65;101433.59;5018379;28;20350;-83
2022/08/23 11:20:47;;;;;;;6.72;1.88;;;;;;;35.62;29.32;101427.56;5028618;28;20065;-83
2022/08/23 11:23:15;;;;;;;2.97;1.43;;;;;;;35.54;26.65;101426.19;5015690;28;20037;-81
2022/08/23 11:25:44;;;;;;;4.50;1.60;;;;;;;35.61;26.75;101416.78;5028874;28;20347;-80
2022/08/23 11:28:22;;;;;;;5.47;1.88;;;;;;;35.55;28.08;101429.75;5017261;28;20487;-79
2022/08/23 11:31:07;;;;;;;10.63;2.17;;;;;;;35.37;27.73;101440.22;5016794;28;20029;-81
2022/08/23 11:34:10;;;;;;;8.63;2.13;;;;;;;35.77;29.10;101424.03;5032640;28;20037;-81
2022/08/23 11:36:36;;;;;;;9.40;1.80;;;;;;;35.48;26.94;101435.53;4975079;28;20122;-82
2022/08/23 11:39:09;;;;;;;6.15;2.03;;;;;;;35.73;25.84;101429.28;5000414;28;20088;-82
2022/08/23 11:41:55;;;;;;;5.35;2.05;;;;;;;35.90;27.76;101429.03;5045800;28;20018;-82
2022/08/23 11:44:36;;;;;;;5.38;1.77;;;;;;;35.78;27.36;101433.19;5019269;28;20045;-81
2022/08/23 11:47:06;;;;;;;5.00;1.75;;;;;;;35.70;27.15;101421.50;5025552;28;20076;-83